Amavisti — V2CR5 — position and weather

sailwx.info

Track history (hours):
 
Tides and Currents Weather Stations Pressure Air Temp Water Temp Dewpoint Dewpoint Depression Visibility Wind Speed Wind Dir Waves Ship Positions

Amavisti

Last reported at 2016-Jun-25 14:09 UTC. Time now 2016-Jun-27 18:37 UTC.
Position N 46°16' E 030°54'.

Length 116 m; draft 5 m.

Type: Cargo ship. MMSI: 305086000.

Date/timePositionNaut miles runAvg speedWind from/ knotsBaromVisibWave heightAir tempDewpointWater temp
2016-Jun-25 14:09N 46°16' E 030°54'711.7
2016-Jun-25 13:33N 46°22' E 030°55'1010.4
2016-Jun-25 12:33N 46°33' E 030°58'7 6.0
2016-Jun-25 11:26N 46°39' E 031°01'0 0.0
2016-Jun-24 22:20N 46°39' E 031°01'0 0.0
2016-Jun-24 21:32N 46°39' E 031°01'0 0.0
2016-Jun-24 20:26N 46°39' E 031°01'0 0.0
2016-Jun-24 18:23N 46°39' E 031°01'0 0.0
2016-Jun-24 17:29N 46°39' E 031°01'0 0.0
2016-Jun-24 16:23N 46°39' E 031°01'0 0.0
2016-Jun-24 15:29N 46°39' E 031°01'0 0.0
2016-Jun-24 14:32N 46°39' E 031°01'0 0.0
2016-Jun-24 13:32N 46°39' E 031°01'0 0.0
2016-Jun-24 12:32N 46°39' E 031°01'0 0.0
2016-Jun-24 11:32N 46°39' E 031°01'0 0.0
2016-Jun-24 10:32N 46°39' E 031°01'0 0.0
2016-Jun-24 09:32N 46°39' E 031°01'0 0.0
2016-Jun-24 08:32N 46°39' E 031°01'0 0.0
2016-Jun-24 07:32N 46°39' E 031°01'5 1.7
2016-Jun-24 04:33N 46°34' E 031°02'6 6.4
2016-Jun-24 03:33N 46°29' E 030°57'8 8.5
2016-Jun-24 02:33N 46°21' E 030°57'9 8.9
2016-Jun-24 01:33N 46°13' E 031°03'9 9.3
2016-Jun-24 00:33N 46°05' E 031°10'9 9.2
2016-Jun-23 23:33N 45°55' E 031°08'9 9.0
2016-Jun-23 22:31N 45°46' E 031°08'9 9.1
2016-Jun-23 21:33N 45°37' E 031°08'10 9.3
2016-Jun-23 20:29N 45°27' E 031°08'28410.9
2016-Jun-22 18:24N 40°59' E 028°60'8 9.3
2016-Jun-22 17:33N 40°52' E 028°56'6 3.1
2016-Jun-22 15:33N 40°45' E 028°55'4 1.9
2016-Jun-22 13:33N 40°42' E 028°54'6 1.9
2016-Jun-22 10:27N 40°47' E 028°57'1 0.9
2016-Jun-22 09:31N 40°48' E 028°57'1 1.2
2016-Jun-22 08:30N 40°49' E 028°57'3 3.0
2016-Jun-22 07:32N 40°47' E 028°54'246 5.5
2016-Jun-20 10:26N 37°26' E 025°51'  
Track history (hours):
 
Tides and Currents Weather Stations Pressure Air Temp Water Temp Dewpoint Dewpoint Depression Visibility Wind Speed Wind Dir Waves Ship Positions

Amavisti

Last reported at 2016-Jun-25 14:09 UTC. Time now 2016-Jun-27 18:37 UTC.
Position N 46°16' E 030°54'.

Length 116 m; draft 5 m.

Type: Cargo ship. MMSI: 305086000.

Date/timePositionNaut miles runAvg speedWind from/ knotsBaromVisibWave heightAir tempDewpointWater temp
2016-Jun-25 14:09N 46°16' E 030°54'711.7
2016-Jun-25 13:33N 46°22' E 030°55'1010.4
2016-Jun-25 12:33N 46°33' E 030°58'7 6.0
2016-Jun-25 11:26N 46°39' E 031°01'0 0.0
2016-Jun-24 22:20N 46°39' E 031°01'0 0.0
2016-Jun-24 21:32N 46°39' E 031°01'0 0.0
2016-Jun-24 20:26N 46°39' E 031°01'0 0.0
2016-Jun-24 18:23N 46°39' E 031°01'0 0.0
2016-Jun-24 17:29N 46°39' E 031°01'0 0.0
2016-Jun-24 16:23N 46°39' E 031°01'0 0.0
2016-Jun-24 15:29N 46°39' E 031°01'0 0.0
2016-Jun-24 14:32N 46°39' E 031°01'0 0.0
2016-Jun-24 13:32N 46°39' E 031°01'0 0.0
2016-Jun-24 12:32N 46°39' E 031°01'0 0.0
2016-Jun-24 11:32N 46°39' E 031°01'0 0.0
2016-Jun-24 10:32N 46°39' E 031°01'0 0.0
2016-Jun-24 09:32N 46°39' E 031°01'0 0.0
2016-Jun-24 08:32N 46°39' E 031°01'0 0.0
2016-Jun-24 07:32N 46°39' E 031°01'5 1.7
2016-Jun-24 04:33N 46°34' E 031°02'6 6.4
2016-Jun-24 03:33N 46°29' E 030°57'8 8.5
2016-Jun-24 02:33N 46°21' E 030°57'9 8.9
2016-Jun-24 01:33N 46°13' E 031°03'9 9.3
2016-Jun-24 00:33N 46°05' E 031°10'9 9.2
2016-Jun-23 23:33N 45°55' E 031°08'9 9.0
2016-Jun-23 22:31N 45°46' E 031°08'9 9.1
2016-Jun-23 21:33N 45°37' E 031°08'10 9.3
2016-Jun-23 20:29N 45°27' E 031°08'28410.9
2016-Jun-22 18:24N 40°59' E 028°60'8 9.3
2016-Jun-22 17:33N 40°52' E 028°56'6 3.1
2016-Jun-22 15:33N 40°45' E 028°55'4 1.9
2016-Jun-22 13:33N 40°42' E 028°54'6 1.9
2016-Jun-22 10:27N 40°47' E 028°57'1 0.9
2016-Jun-22 09:31N 40°48' E 028°57'1 1.2
2016-Jun-22 08:30N 40°49' E 028°57'3 3.0
2016-Jun-22 07:32N 40°47' E 028°54'246 5.5
2016-Jun-20 10:26N 37°26' E 025°51'  

Dump ship's entire track history